Glory Ocean — 9VDE7 — position and weather

sailwx.info

Track history (hours):
 
Tides and Currents Weather Stations Pressure Air Temp Water Temp Dewpoint Dewpoint Depression Visibility Wind Speed Wind Dir Waves Ship Positions

Glory Ocean

Last reported at 2016-Jun-26 20:33 UTC. Time now 2016-Jun-26 21:02 UTC.
Position N 36°60' E 013°24'.

Length 139 m; draft 8.9 m.

Type: Cargo ship. MMSI: 564700000.

Date/timePositionNaut miles runAvg speedWind from/ knotsBaromVisibWave heightAir tempDewpointWater temp
2016-Jun-26 20:33N 36°60' E 013°24'1312.5
2016-Jun-26 19:33N 36°53' E 013°37'1211.8
2016-Jun-26 18:33N 36°47' E 013°49'1211.5
2016-Jun-26 17:33N 36°41' E 014°02'1111.4
2016-Jun-26 16:33N 36°35' E 014°14'1211.6
2016-Jun-26 15:33N 36°28' E 014°26'1211.9
2016-Jun-26 14:33N 36°25' E 014°40'1212.3
2016-Jun-26 13:33N 36°24' E 014°55'1212.4
2016-Jun-26 12:33N 36°23' E 015°11'42911.3
2016-Jun-24 22:28N 37°23' E 024°03'1312.9
2016-Jun-24 21:28N 37°35' E 024°09'1212.8
2016-Jun-24 20:33N 37°46' E 024°13'1212.4
2016-Jun-24 19:33N 37°58' E 024°10'1212.1
2016-Jun-24 18:33N 38°10' E 024°08'1 0.0
2016-Jun-23 02:33N 38°10' E 024°08'1212.3
2016-Jun-23 01:33N 37°58' E 024°10'1212.3
2016-Jun-23 00:33N 37°46' E 024°13'1111.2
2016-Jun-22 23:33N 37°35' E 024°09'1212.3
2016-Jun-22 22:33N 37°24' E 024°03'1212.5
2016-Jun-22 21:33N 37°12' E 023°57'1312.6
2016-Jun-22 20:32N 37°00' E 023°50'43511.7
2016-Jun-21 07:23N 36°24' E 014°50'1112.9
2016-Jun-21 06:33N 36°25' E 014°36'2613.0
2016-Jun-21 04:33N 36°37' E 014°08'1312.8
2016-Jun-21 03:33N 36°44' E 013°55'1313.2
2016-Jun-21 02:33N 36°51' E 013°41'1312.8
2016-Jun-21 01:33N 36°58' E 013°27'1312.8
2016-Jun-21 00:32N 37°05' E 013°13'55512.6
2016-Jun-19 04:28N 36°52' E 001°38'17813.3
2016-Jun-18 15:09N 36°23' W 002°00'813.9
2016-Jun-18 14:34N 36°21' W 002°10'15213.8
2016-Jun-18 03:33N 35°56' W 005°15'4 3.5
2016-Jun-18 02:32N 35°54' W 005°19'0 0.0
2016-Jun-18 01:32N 35°54' W 005°19'0 0.0
2016-Jun-18 00:32N 35°54' W 005°19'0 0.0
2016-Jun-17 23:32N 35°54' W 005°19'0 0.0
2016-Jun-17 22:32N 35°54' W 005°19'0 0.0
2016-Jun-17 21:32N 35°54' W 005°19'0 0.0
2016-Jun-17 20:32N 35°54' W 005°19'0 0.0
2016-Jun-17 19:32N 35°54' W 005°19'1 0.6
2016-Jun-17 18:34N 35°54' W 005°19'2 1.6
2016-Jun-17 17:34N 35°55' W 005°20'0 0.1
2016-Jun-17 16:31N 35°55' W 005°20'0 0.1
2016-Jun-17 15:31N 35°55' W 005°20'0 0.1
2016-Jun-17 14:31N 35°55' W 005°20'0 0.0
2016-Jun-17 13:28N 35°55' W 005°20'0 0.0
2016-Jun-17 12:31N 35°55' W 005°20'0 0.0
2016-Jun-17 11:31N 35°55' W 005°20'0 0.0
2016-Jun-17 10:31N 35°55' W 005°20'0 0.0
2016-Jun-17 09:31N 35°55' W 005°20'0 0.0
2016-Jun-17 08:31N 35°55' W 005°20'0 0.0
2016-Jun-17 07:31N 35°55' W 005°20'0 0.0
2016-Jun-17 06:31N 35°55' W 005°20'0 0.0
2016-Jun-17 05:31N 35°55' W 005°20'0 0.0
2016-Jun-17 04:31N 35°55' W 005°20'0 0.0
2016-Jun-17 03:31N 35°55' W 005°20'0 0.3
2016-Jun-17 02:33N 35°55' W 005°20'1210.0
2016-Jun-17 01:21N 35°55' W 005°35'1314.5
2016-Jun-17 00:26N 35°54' W 005°51'  
Track history (hours):
 
Tides and Currents Weather Stations Pressure Air Temp Water Temp Dewpoint Dewpoint Depression Visibility Wind Speed Wind Dir Waves Ship Positions

Glory Ocean

Last reported at 2016-Jun-26 20:33 UTC. Time now 2016-Jun-26 21:02 UTC.
Position N 36°60' E 013°24'.

Length 139 m; draft 8.9 m.

Type: Cargo ship. MMSI: 564700000.

Date/timePositionNaut miles runAvg speedWind from/ knotsBaromVisibWave heightAir tempDewpointWater temp
2016-Jun-26 20:33N 36°60' E 013°24'1312.5
2016-Jun-26 19:33N 36°53' E 013°37'1211.8
2016-Jun-26 18:33N 36°47' E 013°49'1211.5
2016-Jun-26 17:33N 36°41' E 014°02'1111.4
2016-Jun-26 16:33N 36°35' E 014°14'1211.6
2016-Jun-26 15:33N 36°28' E 014°26'1211.9
2016-Jun-26 14:33N 36°25' E 014°40'1212.3
2016-Jun-26 13:33N 36°24' E 014°55'1212.4
2016-Jun-26 12:33N 36°23' E 015°11'42911.3
2016-Jun-24 22:28N 37°23' E 024°03'1312.9
2016-Jun-24 21:28N 37°35' E 024°09'1212.8
2016-Jun-24 20:33N 37°46' E 024°13'1212.4
2016-Jun-24 19:33N 37°58' E 024°10'1212.1
2016-Jun-24 18:33N 38°10' E 024°08'1 0.0
2016-Jun-23 02:33N 38°10' E 024°08'1212.3
2016-Jun-23 01:33N 37°58' E 024°10'1212.3
2016-Jun-23 00:33N 37°46' E 024°13'1111.2
2016-Jun-22 23:33N 37°35' E 024°09'1212.3
2016-Jun-22 22:33N 37°24' E 024°03'1212.5
2016-Jun-22 21:33N 37°12' E 023°57'1312.6
2016-Jun-22 20:32N 37°00' E 023°50'43511.7
2016-Jun-21 07:23N 36°24' E 014°50'1112.9
2016-Jun-21 06:33N 36°25' E 014°36'2613.0
2016-Jun-21 04:33N 36°37' E 014°08'1312.8
2016-Jun-21 03:33N 36°44' E 013°55'1313.2
2016-Jun-21 02:33N 36°51' E 013°41'1312.8
2016-Jun-21 01:33N 36°58' E 013°27'1312.8
2016-Jun-21 00:32N 37°05' E 013°13'55512.6
2016-Jun-19 04:28N 36°52' E 001°38'17813.3
2016-Jun-18 15:09N 36°23' W 002°00'813.9
2016-Jun-18 14:34N 36°21' W 002°10'15213.8
2016-Jun-18 03:33N 35°56' W 005°15'4 3.5
2016-Jun-18 02:32N 35°54' W 005°19'0 0.0
2016-Jun-18 01:32N 35°54' W 005°19'0 0.0
2016-Jun-18 00:32N 35°54' W 005°19'0 0.0
2016-Jun-17 23:32N 35°54' W 005°19'0 0.0
2016-Jun-17 22:32N 35°54' W 005°19'0 0.0
2016-Jun-17 21:32N 35°54' W 005°19'0 0.0
2016-Jun-17 20:32N 35°54' W 005°19'0 0.0
2016-Jun-17 19:32N 35°54' W 005°19'1 0.6
2016-Jun-17 18:34N 35°54' W 005°19'2 1.6
2016-Jun-17 17:34N 35°55' W 005°20'0 0.1
2016-Jun-17 16:31N 35°55' W 005°20'0 0.1
2016-Jun-17 15:31N 35°55' W 005°20'0 0.1
2016-Jun-17 14:31N 35°55' W 005°20'0 0.0
2016-Jun-17 13:28N 35°55' W 005°20'0 0.0
2016-Jun-17 12:31N 35°55' W 005°20'0 0.0
2016-Jun-17 11:31N 35°55' W 005°20'0 0.0
2016-Jun-17 10:31N 35°55' W 005°20'0 0.0
2016-Jun-17 09:31N 35°55' W 005°20'0 0.0
2016-Jun-17 08:31N 35°55' W 005°20'0 0.0
2016-Jun-17 07:31N 35°55' W 005°20'0 0.0
2016-Jun-17 06:31N 35°55' W 005°20'0 0.0
2016-Jun-17 05:31N 35°55' W 005°20'0 0.0
2016-Jun-17 04:31N 35°55' W 005°20'0 0.0
2016-Jun-17 03:31N 35°55' W 005°20'0 0.3
2016-Jun-17 02:33N 35°55' W 005°20'1210.0
2016-Jun-17 01:21N 35°55' W 005°35'1314.5
2016-Jun-17 00:26N 35°54' W 005°51'  

Dump ship's entire track history